Anvik, AK (99558)

8:44 PM AKDT on August 01, 2014 (GMT -0800)
Anvik (PANV) Elev 308 ft | 62.65 °N, 160.19 °W | Change Station

Current weather conditions updated 8 minutes ago

Overcast
Overcast
61 °F
Feels Like 61 °F
N
9
Wind Variable Wind from SSE

Tomorrow is forecast to be Warmer than today. Showers possible in the afternoon.

Today
High -- | Low -- °F
--% Chance of Precip.
Yesterday
High -- | Low -- °F
Precip. -- in
6:00 AM 11:33 PM
Waxing Crescent, 32% visible
Pressure 30.02 in
Visibility 10.0 miles
Clouds Scattered Clouds 3700 ft
Overcast 5000 ft
Dew Point 57 °F
Humidity 88%
Rainfall 0.07 in
Snow Depth Not available.
UV 0 out of 12
Pollen Not available.
Air Quality Not available.
Flu Activity Not available.
METAR PANV 020436Z AUTO 16008KT 10SM SCT037 OVC050 16/14 A3002 RMK AO1

More Conditions Fewer Conditions

Pressure 30.02 in
Visibility 10.0 miles
Clouds Scattered Clouds 3700 ft
Overcast 5000 ft
Dew Point 57 °F
Humidity 88%
Rainfall 0.07 in
Snow Depth Not available.
UV 0 out of 12
Pollen Not available.
Air Quality Not available.
Flu Activity Not available.
METAR PANV 020436Z AUTO 16008KT 10SM SCT037 OVC050 16/14 A3002 RMK AO1

More Conditions Fewer Conditions

10-Day Weather Forecast

Almanac

Astronomy

Aug. 01, 2014 Rise Set
Actual Time 6:00 AM AKDT 11:33 PM AKDT
Civil Twilight 4:42 AM AKDT 12:49 AM AKDT
Nautical Twilight Sun does not rise Sun does not rise
Astronomical Twilight Sun does not rise Sun does not rise
Moon 1:46 PM AKDT (8/1) No Moon Set
Length of Visible Light 20h 06m
Length of Day
17h 33m
Tomorrow will be 5m 59s shorter.
Waxing Crescent, 32% of the Moon is Illuminated
Aug 2
Waxing Crescent
Aug 3
First Quarter
Aug 10
Full
Aug 17
Last Quarter
Aug 25
New

Yesterday's Extremes

State Highs State Lows

Community

WunderPhotos

Upload Photos

1,739,823 photos uploaded!

Nearby

Snow Depth

Station Depth Elevation
Rocky Point 2 in 500 ft
Susitna Valley High 2 in 375 ft
Point Mackenzie 0 in 200 ft
Mcneil Canyon 1 in 1320 ft
Indian Pass 2 in 2300 ft

Earthquake Activity

City Distance Mag. Time & Date
No recent earthquake activity has been reported nearby.
Minimum magnitude displayed is 2.5.

Coastal Water Temperatures

Place Temperature
No Stations Reporting

Nearby Weather Stations

There are no personal weather stations in this area.